Time;durP1;ratioP1;P1;durP2;ratioP2;P2;SDS_P1;SDS_P2;PMS_P1;PMS_P2;Temp;Humidity;BMP_temperature;BMP_pressure;BME280_temperature;BME280_humidity;BME280_pressure;Samples;Min_cycle;Max_cycle;Signal;HPM_P1;HPM_P2
2022/08/02 00:01:10;;;;;;;8.43;4.53;;;;;;;19.72;89.57;99815.47;4208632;28;20238;-65
2022/08/02 00:03:37;;;;;;;8.03;4.23;;;;;;;19.68;89.76;99819.66;4203305;28;20385;-67
2022/08/02 00:06:11;;;;;;;8.07;4.60;;;;;;;19.62;90.04;99815.13;4184872;28;20241;-65
2022/08/02 00:08:38;;;;;;;7.87;4.77;;;;;;;19.57;90.85;99823.03;4190529;28;20232;-65
2022/08/02 00:11:04;;;;;;;8.27;4.23;;;;;;;19.52;91.31;99820.97;4204818;28;20538;-64
2022/08/02 00:13:37;;;;;;;7.17;4.90;;;;;;;19.52;91.71;99812.06;4190979;28;20336;-66
2022/08/02 00:16:04;;;;;;;7.23;4.67;;;;;;;19.47;91.70;99823.50;4193513;28;25577;-65
2022/08/02 00:18:31;;;;;;;7.30;4.03;;;;;;;19.43;91.92;99821.47;4191951;28;20755;-65
2022/08/02 00:21:06;;;;;;;7.47;4.23;;;;;;;19.38;92.07;99822.94;4191954;28;20398;-65
2022/08/02 00:23:33;;;;;;;6.30;4.33;;;;;;;19.36;91.98;99821.50;4181791;28;22551;-65
2022/08/02 00:26:20;;;;;;;7.30;4.70;;;;;;;19.38;92.44;99822.94;4189540;28;20236;-66
2022/08/02 00:28:53;;;;;;;16.00;9.27;;;;;;;19.39;92.56;99816.53;4193991;28;20243;-65
2022/08/02 00:31:19;;;;;;;12.93;8.70;;;;;;;19.38;92.54;99816.72;4190565;28;20738;-67
2022/08/02 00:33:46;;;;;;;8.23;5.73;;;;;;;19.38;92.91;99811.34;4195358;28;20400;-65
2022/08/02 00:36:40;;;;;;;9.73;4.43;;;;;;;19.37;93.23;99813.22;4197126;28;20306;-65
2022/08/02 00:39:06;;;;;;;6.67;4.10;;;;;;;19.37;93.25;99823.19;4205753;28;20232;-64
2022/08/02 00:41:59;;;;;;;5.77;4.17;;;;;;;19.34;93.50;99827.13;4195792;28;20238;-66
2022/08/02 00:44:26;;;;;;;6.33;3.83;;;;;;;19.32;93.73;99826.53;4207403;28;20233;-68
2022/08/02 00:47:00;;;;;;;8.40;4.20;;;;;;;19.29;93.98;99826.97;4189742;28;20317;-66
2022/08/02 00:49:27;;;;;;;8.33;5.63;;;;;;;19.26;94.23;99826.56;4203889;28;20316;-65
2022/08/02 00:51:53;;;;;;;9.17;5.37;;;;;;;19.23;94.50;99829.72;4203627;28;20298;-65
2022/08/02 00:54:27;;;;;;;7.03;4.63;;;;;;;19.20;94.63;99828.28;4191967;28;20264;-66
2022/08/02 00:56:53;;;;;;;9.10;4.43;;;;;;;19.17;94.67;99828.69;4189774;28;22878;-65
2022/08/02 00:59:20;;;;;;;10.13;4.97;;;;;;;19.10;95.26;99833.28;4202547;28;20234;-66
2022/08/02 01:02:00;;;;;;;8.73;4.77;;;;;;;19.11;95.44;99829.56;4209146;28;21408;-67
2022/08/02 01:04:27;;;;;;;7.70;4.63;;;;;;;19.10;95.33;99827.88;4205575;28;20331;-68
2022/08/02 01:07:04;;;;;;;10.73;5.40;;;;;;;19.09;95.17;99839.75;4205098;28;20330;-65
2022/08/02 01:09:39;;;;;;;11.60;6.17;;;;;;;19.02;94.59;99836.25;4211917;28;20239;-67
2022/08/02 01:12:12;;;;;;;7.23;5.27;;;;;;;19.05;93.72;99835.81;4192876;28;21644;-67
2022/08/02 01:14:41;;;;;;;9.53;5.23;;;;;;;19.01;92.68;99839.97;4204120;28;20319;-66
2022/08/02 01:17:09;;;;;;;9.53;5.50;;;;;;;19.01;92.16;99842.66;4203354;28;20253;-66
2022/08/02 01:20:32;;;;;;;10.27;5.47;;;;;;;18.97;92.34;99835.00;4194051;28;21492;-66
2022/08/02 01:23:30;;;;;;;10.23;5.13;;;;;;;18.99;92.80;99826.72;4196226;28;20492;-66
2022/08/02 01:26:38;;;;;;;7.50;4.80;;;;;;;18.96;93.13;99830.69;4206107;28;22869;-67
2022/08/02 01:29:16;;;;;;;7.10;4.50;;;;;;;18.96;93.55;99830.69;4206939;28;20982;-67
2022/08/02 01:31:57;;;;;;;6.77;4.37;;;;;;;18.91;94.52;99835.88;4208254;28;21891;-67
2022/08/02 01:34:33;;;;;;;11.10;4.93;;;;;;;18.93;95.07;99838.34;4202092;28;20319;-66
2022/08/02 01:37:19;;;;;;;5.33;4.03;;;;;;;18.94;94.88;99832.75;4204639;28;22462;-66
2022/08/02 01:40:09;;;;;;;16.60;5.73;;;;;;;18.93;93.91;99832.97;4199446;28;23699;-66
2022/08/02 01:42:46;;;;;;;8.13;5.03;;;;;;;18.92;92.75;99832.13;4205526;28;25435;-67
2022/08/02 01:45:14;;;;;;;7.20;4.50;;;;;;;18.93;93.54;99832.97;4205004;28;20950;-66
2022/08/02 01:47:43;;;;;;;10.53;5.30;;;;;;;18.95;94.24;99834.41;4200881;28;20248;-68
2022/08/02 01:50:19;;;;;;;6.47;4.67;;;;;;;18.94;94.90;99834.59;4211661;28;22260;-66
2022/08/02 01:52:50;;;;;;;6.93;4.70;;;;;;;18.93;95.57;99841.06;4226775;28;21893;-67
2022/08/02 01:55:38;;;;;;;8.10;4.97;;;;;;;18.90;96.22;99841.50;4233805;28;20233;-67
2022/08/02 01:58:26;;;;;;;7.17;5.07;;;;;;;18.86;96.48;99837.56;4223037;28;20337;-66
2022/08/02 02:01:08;;;;;;;7.70;4.93;;;;;;;18.82;96.85;99847.94;4221763;28;20237;-65
2022/08/02 02:03:41;;;;;;;8.20;5.57;;;;;;;18.80;96.80;99849.19;4189012;28;20487;-65
2022/08/02 02:06:14;;;;;;;8.13;5.07;;;;;;;18.76;96.96;99844.22;4195118;28;20229;-66
2022/08/02 02:08:42;;;;;;;12.27;6.00;;;;;;;18.71;96.50;99853.97;4197882;28;21461;-65
2022/08/02 02:11:09;;;;;;;8.30;5.13;;;;;;;18.69;96.26;99854.19;4191653;28;20252;-65
2022/08/02 02:14:04;;;;;;;9.20;6.03;;;;;;;18.56;96.38;99844.25;4194392;28;20248;-67
2022/08/02 02:16:31;;;;;;;12.80;6.13;;;;;;;18.52;96.66;99851.13;4191512;28;20354;-64
2022/08/02 02:19:05;;;;;;;6.73;4.80;;;;;;;18.52;96.64;99848.44;4199519;28;20241;-66
2022/08/02 02:21:32;;;;;;;8.30;5.33;;;;;;;18.44;96.86;99840.56;4179484;28;20238;-65
2022/08/02 02:24:01;;;;;;;10.53;5.03;;;;;;;18.38;97.15;99846.81;4195906;28;20233;-66
2022/08/02 02:26:37;;;;;;;8.00;5.10;;;;;;;18.35;97.54;99853.44;4189780;28;20234;-67
2022/08/02 02:29:10;;;;;;;11.93;5.90;;;;;;;18.30;97.71;99850.53;4175433;28;21006;-66
2022/08/02 02:31:45;;;;;;;7.83;6.07;;;;;;;18.30;97.98;99849.72;4192401;28;20242;-66
2022/08/02 02:34:36;;;;;;;11.40;5.47;;;;;;;18.27;99.08;99856.34;4178379;28;20300;-65
2022/08/02 02:37:20;;;;;;;6.67;4.90;;;;;;;18.32;99.55;99850.31;4182068;28;20259;-66
2022/08/02 02:39:50;;;;;;;8.37;4.90;;;;;;;18.32;99.68;99853.84;4181029;28;20249;-65
2022/08/02 02:42:28;;;;;;;11.70;5.07;;;;;;;18.31;99.77;99852.19;4192581;28;20863;-64
2022/08/02 02:44:56;;;;;;;9.33;5.30;;;;;;;18.31;99.88;99851.38;4180628;28;20234;-64
2022/08/02 02:47:22;;;;;;;7.07;5.13;;;;;;;18.31;100.00;99849.50;4186763;28;20296;-64
2022/08/02 02:50:14;;;;;;;9.70;5.27;;;;;;;18.33;100.00;99854.66;5018063;23;20341;-66
2022/08/02 02:52:48;;;;;;;8.97;5.50;;;;;;;18.35;99.73;99855.28;4972112;28;20310;-63
2022/08/02 02:55:23;;;;;;;11.53;5.57;;;;;;;18.32;98.99;99853.03;4976244;28;20338;-62
2022/08/02 02:57:49;;;;;;;9.50;5.73;;;;;;;18.33;98.90;99843.88;4978090;28;20302;-62
2022/08/02 03:00:16;;;;;;;12.20;6.27;;;;;;;18.27;98.48;99850.13;4976503;28;20354;-63
2022/08/02 03:02:49;;;;;;;9.13;5.30;;;;;;;18.21;98.22;99842.88;4979873;28;20624;-62
2022/08/02 03:05:16;;;;;;;9.70;4.83;;;;;;;18.17;98.08;99847.03;4977819;28;20235;-62
2022/08/02 03:07:42;;;;;;;9.37;5.30;;;;;;;18.05;98.90;99847.69;4975923;28;20391;-63
2022/08/02 03:10:16;;;;;;;9.40;6.20;;;;;;;17.94;99.60;99842.91;4961613;28;20509;-64
2022/08/02 03:12:42;;;;;;;7.60;5.27;;;;;;;17.86;100.00;99843.13;4978237;28;20323;-63
2022/08/02 03:15:11;;;;;;;11.00;6.03;;;;;;;17.75;100.00;99846.38;4977825;28;20314;-63
2022/08/02 03:17:45;;;;;;;10.13;5.77;;;;;;;17.75;100.00;99835.63;4974315;28;20231;-63
2022/08/02 03:20:14;;;;;;;8.53;5.90;;;;;;;17.73;100.00;99844.75;4975813;28;20309;-63
2022/08/02 03:22:42;;;;;;;9.60;6.43;;;;;;;17.86;100.00;99843.13;4961267;28;22857;-62
2022/08/02 03:25:16;;;;;;;9.50;5.03;;;;;;;17.89;100.00;99846.22;4978632;28;20789;-63
2022/08/02 03:27:42;;;;;;;11.97;6.60;;;;;;;17.90;100.00;99847.88;4977872;28;20318;-63
2022/08/02 03:30:11;;;;;;;10.90;6.13;;;;;;;17.97;100.00;99849.75;4959266;28;20303;-63
2022/08/02 03:32:46;;;;;;;9.57;5.77;;;;;;;17.97;100.00;99855.94;4976111;28;20321;-63
2022/08/02 03:35:14;;;;;;;9.90;5.87;;;;;;;17.95;100.00;99858.03;4973169;28;20322;-63
2022/08/02 03:37:49;;;;;;;11.83;7.07;;;;;;;17.93;100.00;99854.69;4974919;28;20254;-62
2022/08/02 03:40:22;;;;;;;11.03;6.90;;;;;;;17.96;100.00;99857.00;4978110;28;20388;-62
2022/08/02 03:42:49;;;;;;;10.07;6.03;;;;;;;18.01;100.00;99861.75;4977995;28;20223;-63
2022/08/02 03:45:15;;;;;;;8.63;5.77;;;;;;;18.07;100.00;99860.91;4978653;28;20347;-63
2022/08/02 03:47:49;;;;;;;9.90;6.63;;;;;;;18.11;100.00;99864.84;4958322;28;20416;-63
2022/08/02 03:50:24;;;;;;;11.30;7.07;;;;;;;18.17;100.00;99865.88;4973384;28;20259;-64
2022/08/02 03:53:04;;;;;;;12.87;8.57;;;;;;;18.26;100.00;99872.69;4951704;28;20260;-63
2022/08/02 03:55:30;;;;;;;15.10;9.27;;;;;;;18.29;100.00;99875.00;4956469;28;20318;-63
2022/08/02 03:58:04;;;;;;;15.63;10.10;;;;;;;18.21;100.00;99873.31;4954006;28;20277;-62
2022/08/02 04:00:31;;;;;;;14.57;9.23;;;;;;;18.31;100.00;99879.13;4956515;28;20289;-63
2022/08/02 04:02:58;;;;;;;15.27;8.37;;;;;;;18.33;100.00;99881.59;4959913;28;20802;-62
2022/08/02 04:05:31;;;;;;;15.33;8.53;;;;;;;18.46;99.45;99886.97;4963638;28;20335;-63
2022/08/02 04:07:58;;;;;;;14.67;8.90;;;;;;;18.43;99.11;99881.19;4963963;28;20314;-63
2022/08/02 04:13:37;;;;;;;12.80;8.60;;;;;;;18.55;98.28;99888.41;4963304;28;20620;-63
2022/08/02 04:16:10;;;;;;;15.80;9.13;;;;;;;18.61;97.91;99885.91;4964907;28;20228;-63
2022/08/02 04:18:44;;;;;;;13.30;8.10;;;;;;;18.65;97.47;99887.16;4959479;28;20283;-63
2022/08/02 04:21:18;;;;;;;12.63;8.17;;;;;;;18.65;96.79;99896.06;4957501;28;20255;-62
2022/08/02 04:23:46;;;;;;;12.07;8.13;;;;;;;18.69;96.14;99894.59;4961445;28;20588;-63
2022/08/02 04:26:12;;;;;;;16.10;8.90;;;;;;;18.77;95.01;99894.38;4959164;28;20363;-63
2022/08/02 04:28:54;;;;;;;15.60;8.83;;;;;;;18.85;94.06;99900.63;4944018;28;20231;-63
2022/08/02 04:31:21;;;;;;;14.80;8.23;;;;;;;18.98;93.78;99901.38;4959393;28;20228;-63
2022/08/02 04:33:54;;;;;;;13.80;8.70;;;;;;;18.97;92.43;99907.81;4961128;28;20279;-63
2022/08/02 04:36:21;;;;;;;14.87;7.97;;;;;;;19.04;91.39;99905.09;4961510;28;20315;-64
2022/08/02 04:38:57;;;;;;;12.23;7.40;;;;;;;19.14;91.33;99910.88;4958240;28;20255;-63
2022/08/02 04:41:56;;;;;;;16.90;8.37;;;;;;;19.24;90.51;99910.41;4962929;28;20316;-64
2022/08/02 04:44:23;;;;;;;12.50;7.20;;;;;;;19.31;88.53;99916.59;4955160;28;20259;-62
2022/08/02 04:46:57;;;;;;;11.60;6.93;;;;;;;19.40;88.05;99923.41;4961356;28;20246;-63
2022/08/02 04:49:29;;;;;;;10.87;7.10;;;;;;;19.45;87.05;99924.63;4962928;28;20240;-63
2022/08/02 04:52:10;;;;;;;13.27;6.83;;;;;;;19.40;86.62;99930.66;4980284;28;20642;-64
2022/08/02 04:54:37;;;;;;;9.10;6.00;;;;;;;19.53;85.84;99929.78;4981693;28;20366;-63
2022/08/02 04:59:55;;;;;;;13.60;6.83;;;;;;;19.47;84.13;99941.44;4980499;28;20238;-63
2022/08/02 05:02:28;;;;;;;13.63;6.30;;;;;;;19.51;83.96;99943.50;4964062;28;20603;-63
2022/08/02 05:04:55;;;;;;;11.97;6.90;;;;;;;19.65;84.13;99944.25;4980073;28;20314;-64
2022/08/02 05:07:21;;;;;;;14.13;6.60;;;;;;;19.79;83.70;99945.84;4979432;28;20658;-63
2022/08/02 05:10:01;;;;;;;13.03;6.87;;;;;;;19.89;81.85;99945.38;4980147;28;20230;-63
2022/08/02 05:12:29;;;;;;;13.50;6.07;;;;;;;19.97;81.37;99961.31;4979215;28;20663;-63
2022/08/02 05:15:02;;;;;;;14.83;6.07;;;;;;;20.09;81.06;99958.75;4959014;28;21057;-62
2022/08/02 05:17:29;;;;;;;13.83;5.83;;;;;;;20.17;80.37;99958.47;4962099;28;20554;-64
2022/08/02 05:19:56;;;;;;;13.77;6.30;;;;;;;20.29;79.07;99963.97;4977878;28;20306;-63
2022/08/02 05:22:29;;;;;;;15.00;6.00;;;;;;;20.44;76.69;99964.47;4979460;28;20759;-63
2022/08/02 05:24:56;;;;;;;15.17;5.57;;;;;;;20.52;75.91;99967.97;4980730;28;20556;-63
2022/08/02 05:27:22;;;;;;;13.80;6.00;;;;;;;20.48;74.32;99964.03;4959074;28;20236;-63
2022/08/02 05:29:57;;;;;;;12.60;5.70;;;;;;;20.59;74.00;99969.56;4978638;28;20238;-62
2022/08/02 05:32:23;;;;;;;9.53;5.20;;;;;;;20.76;72.26;99979.81;4977980;28;20318;-63
2022/08/02 05:34:51;;;;;;;11.50;4.83;;;;;;;20.93;70.64;99983.59;4976715;28;20294;-63
2022/08/02 05:37:24;;;;;;;10.53;4.77;;;;;;;21.18;69.82;99985.41;4979236;28;20378;-64
2022/08/02 05:39:57;;;;;;;5.63;4.10;;;;;;;21.37;67.10;99987.03;4975975;28;20322;-64
2022/08/02 05:42:26;;;;;;;8.17;4.30;;;;;;;21.52;66.56;99991.25;4981500;28;20231;-64
2022/08/02 05:44:59;;;;;;;11.53;4.70;;;;;;;21.77;65.47;99991.97;4977297;28;20233;-63
2022/08/02 05:47:26;;;;;;;16.77;4.60;;;;;;;21.75;64.06;99999.53;4976551;28;20262;-63
2022/08/02 05:49:52;;;;;;;13.10;4.60;;;;;;;22.04;64.61;100005.16;4978471;28;20538;-62
2022/08/02 05:52:41;;;;;;;8.83;4.50;;;;;;;22.22;63.67;100001.56;4979210;28;20298;-63
2022/08/02 05:55:18;;;;;;;9.10;4.67;;;;;;;22.38;63.84;100013.63;4961179;28;20728;-62
2022/08/02 05:58:17;;;;;;;8.80;4.33;;;;;;;23.21;60.47;100007.19;4978826;28;20323;-63
2022/08/02 06:00:44;;;;;;;13.73;4.40;;;;;;;24.24;56.34;100020.91;4978034;28;20322;-63
2022/08/02 06:03:24;;;;;;;10.27;4.10;;;;;;;25.22;52.36;100023.28;4964964;28;20390;-62
2022/08/02 06:06:13;;;;;;;9.97;3.60;;;;;;;26.32;46.01;100036.81;4980440;28;20591;-62
2022/08/02 06:08:49;;;;;;;13.93;4.23;;;;;;;26.61;45.05;100045.53;4976986;28;20286;-64
2022/08/02 06:11:26;;;;;;;9.70;3.67;;;;;;;27.38;43.46;100047.97;4979532;28;20437;-64
2022/08/02 06:14:00;;;;;;;9.87;3.20;;;;;;;28.22;39.38;100046.06;4976996;28;20239;-63
2022/08/02 06:16:27;;;;;;;9.80;2.97;;;;;;;28.62;36.66;100057.06;4962078;28;20228;-63
2022/08/02 06:18:59;;;;;;;10.23;2.60;;;;;;;29.27;34.80;100056.47;4978490;28;20326;-62
2022/08/02 06:21:34;;;;;;;7.50;2.90;;;;;;;29.25;34.15;100059.47;4978492;28;20589;-63
2022/08/02 06:24:28;;;;;;;7.87;2.60;;;;;;;29.81;32.72;100061.19;4977100;28;20235;-64
2022/08/02 06:27:01;;;;;;;7.77;3.00;;;;;;;30.12;32.15;100066.50;4955084;28;20361;-63
2022/08/02 06:29:31;;;;;;;6.13;2.63;;;;;;;30.47;31.14;100083.88;4978086;28;20250;-63
2022/08/02 06:32:05;;;;;;;8.17;2.37;;;;;;;31.00;29.63;100084.00;4960678;28;20340;-64
2022/08/02 06:34:39;;;;;;;6.87;2.30;;;;;;;30.00;31.08;100069.59;4960246;28;20242;-60
2022/08/02 06:37:31;;;;;;;8.07;2.50;;;;;;;29.57;31.94;100071.13;4979606;28;20346;-68
2022/08/02 06:40:41;;;;;;;6.90;1.90;;;;;;;28.32;33.32;100063.31;4951210;28;20641;-66
2022/08/02 06:43:22;;;;;;;3.93;2.10;;;;;;;27.93;35.91;100065.69;4956856;28;20768;-65
2022/08/02 06:45:55;;;;;;;8.70;2.20;;;;;;;27.85;35.64;100068.97;4958311;28;20290;-64
2022/08/02 06:48:42;;;;;;;8.23;2.33;;;;;;;27.31;36.27;100065.41;4979225;28;20310;-63
2022/08/02 06:51:23;;;;;;;5.03;2.03;;;;;;;27.06;36.31;100062.50;4978072;28;20246;-65
2022/08/02 06:53:56;;;;;;;9.83;2.60;;;;;;;27.76;35.18;100063.97;4958915;28;20293;-64
2022/08/02 06:56:29;;;;;;;5.43;2.47;;;;;;;29.46;33.38;100076.66;4979505;28;20630;-63
2022/08/02 06:58:56;;;;;;;11.57;2.10;;;;;;;31.34;28.94;100102.34;4976666;28;20279;-63
2022/08/02 07:01:22;;;;;;;7.27;2.37;;;;;;;32.29;27.56;100105.31;4976904;28;20318;-64
2022/08/02 07:04:04;;;;;;;5.73;2.03;;;;;;;33.43;26.09;100115.00;4979490;28;20746;-66
2022/08/02 07:06:30;;;;;;;3.87;2.30;;;;;;;33.96;25.70;100113.66;4976921;28;20310;-69
2022/08/02 07:09:03;;;;;;;4.20;2.30;;;;;;;34.88;23.56;100119.81;4961886;28;20260;-69
2022/08/02 07:11:46;;;;;;;4.60;2.40;;;;;;;34.56;23.72;100120.88;4979255;28;20318;-62
2022/08/02 07:14:19;;;;;;;8.13;2.15;;;;;;;33.88;25.28;100111.63;4976727;28;20235;-63
2022/08/02 07:16:46;;;;;;;6.10;2.28;;;;;;;34.09;24.33;100119.44;4977108;28;20220;-62
2022/08/02 07:19:12;;;;;;;4.85;2.42;;;;;;;33.77;25.22;100110.22;4976902;28;20225;-62
2022/08/02 07:21:45;;;;;;;8.23;1.98;;;;;;;33.98;24.32;100122.44;4962579;28;20330;-63
2022/08/02 07:24:26;;;;;;;7.07;1.70;;;;;;;34.98;22.84;100131.72;4975041;28;20361;-63
2022/08/02 07:27:00;;;;;;;7.93;1.80;;;;;;;34.58;23.22;100124.16;4974302;28;20761;-62
2022/08/02 07:29:37;;;;;;;4.80;1.50;;;;;;;35.05;22.05;100132.94;4974496;28;20230;-64
2022/08/02 07:32:19;;;;;;;3.30;1.80;;;;;;;35.43;20.73;100131.69;4976065;28;20638;-62
2022/08/02 07:34:46;;;;;;;8.02;1.77;;;;;;;35.89;20.14;100138.69;4971475;28;20239;-63
2022/08/02 07:37:22;;;;;;;4.18;1.80;;;;;;;35.85;20.87;100134.94;4974883;28;20253;-64
2022/08/02 07:40:10;;;;;;;5.25;1.70;;;;;;;35.19;21.29;100124.59;4976072;28;20242;-64
2022/08/02 07:42:52;;;;;;;7.43;1.70;;;;;;;35.37;20.86;100127.41;4977108;28;20646;-63
2022/08/02 07:45:24;;;;;;;4.22;1.50;;;;;;;34.90;21.58;100113.97;4976650;28;20223;-63
2022/08/02 07:48:01;;;;;;;4.50;2.10;;;;;;;33.82;22.73;100108.13;4975271;28;20299;-64
2022/08/02 07:50:35;;;;;;;8.07;1.73;;;;;;;32.79;25.33;100102.88;4978902;28;20242;-62
2022/08/02 07:53:15;;;;;;;6.47;2.10;;;;;;;32.27;25.16;100097.34;4976133;28;20325;-64
2022/08/02 07:55:41;;;;;;;9.40;1.50;;;;;;;31.77;26.57;100091.38;4977619;28;20401;-63
2022/08/02 07:58:11;;;;;;;4.82;1.90;;;;;;;31.23;27.97;100100.78;4977204;28;20255;-64
2022/08/02 08:00:44;;;;;;;7.73;1.93;;;;;;;30.99;28.84;100090.59;4976334;28;20222;-62
2022/08/02 08:03:11;;;;;;;4.17;1.77;;;;;;;31.01;28.28;100093.06;4977878;28;20319;-64
2022/08/02 08:05:38;;;;;;;4.60;1.70;;;;;;;30.92;27.77;100093.66;4976351;28;20329;-65
2022/08/02 08:08:11;;;;;;;7.35;1.92;;;;;;;31.20;27.84;100101.38;4959923;28;20326;-62
2022/08/02 08:10:43;;;;;;;6.53;1.92;;;;;;;30.86;26.99;100096.75;4980569;28;20226;-64
2022/08/02 08:13:10;;;;;;;7.83;2.03;;;;;;;30.18;28.53;100102.97;4979039;28;20279;-66
2022/08/02 08:15:43;;;;;;;7.50;2.07;;;;;;;30.41;27.93;100101.47;4972794;28;20338;-64
2022/08/02 08:18:18;;;;;;;7.00;1.73;;;;;;;30.15;29.86;100089.81;4978468;28;20292;-64
2022/08/02 08:20:51;;;;;;;3.45;1.65;;;;;;;30.23;28.78;100095.53;4978075;28;20664;-68
2022/08/02 08:23:21;;;;;;;3.58;1.50;;;;;;;30.17;29.88;100091.16;4973556;28;20219;-68
2022/08/02 08:25:47;;;;;;;3.25;1.77;;;;;;;30.25;29.32;100095.22;4978454;28;20260;-64
2022/08/02 08:28:20;;;;;;;5.53;1.90;;;;;;;29.64;29.80;100088.13;4977566;28;20331;-65
2022/08/02 08:30:47;;;;;;;7.30;1.70;;;;;;;28.94;32.02;100082.50;4976797;28;20232;-63
2022/08/02 08:33:14;;;;;;;11.83;2.30;;;;;;;29.14;32.58;100089.91;4978176;28;20715;-63
2022/08/02 08:35:46;;;;;;;6.77;2.17;;;;;;;29.36;30.30;100086.84;4976906;28;20232;-66
2022/08/02 08:38:14;;;;;;;3.60;1.50;;;;;;;29.62;29.60;100093.91;4976940;28;20611;-63
2022/08/02 08:40:41;;;;;;;3.33;1.83;;;;;;;30.12;29.01;100093.94;4978448;28;20693;-64
2022/08/02 08:43:14;;;;;;;2.77;1.90;;;;;;;29.16;30.90;100094.03;4977647;28;20314;-64
2022/08/02 08:45:45;;;;;;;7.83;1.73;;;;;;;29.27;31.52;100083.03;4976265;28;20298;-64
2022/08/02 08:48:21;;;;;;;3.23;1.67;;;;;;;28.83;31.64;100081.72;4979901;28;20238;-64
2022/08/02 08:51:10;;;;;;;6.93;2.03;;;;;;;29.00;31.11;100095.91;4980594;28;20273;-64
2022/08/02 08:53:46;;;;;;;3.60;1.93;;;;;;;29.12;30.82;100089.38;4979473;28;20318;-63
2022/08/02 08:56:20;;;;;;;4.43;2.20;;;;;;;28.31;33.54;100089.06;4977861;28;20225;-63
2022/08/02 08:58:46;;;;;;;6.53;1.83;;;;;;;28.28;34.99;100083.28;4981282;28;20377;-65
2022/08/02 09:01:15;;;;;;;5.07;2.07;;;;;;;28.81;32.65;100086.63;4979469;28;20563;-63
2022/08/02 09:03:48;;;;;;;3.80;2.40;;;;;;;28.95;33.01;100093.19;4979734;28;20227;-64
2022/08/02 09:06:15;;;;;;;5.47;1.90;;;;;;;28.54;34.39;100076.78;4980990;28;20259;-65
2022/08/02 09:08:56;;;;;;;5.37;2.30;;;;;;;28.68;33.43;100082.53;4964059;28;20222;-61
2022/08/02 09:11:36;;;;;;;2.83;2.07;;;;;;;28.97;32.47;100092.94;4976910;28;20333;-63
2022/08/02 09:14:03;;;;;;;5.70;2.17;;;;;;;28.89;33.17;100085.25;4980077;28;20311;-64
2022/08/02 09:16:34;;;;;;;4.60;2.07;;;;;;;28.74;32.86;100089.66;4982331;28;20919;-63
2022/08/02 09:19:25;;;;;;;5.23;1.90;;;;;;;28.75;32.02;100087.72;4982886;28;20228;-65
2022/08/02 09:22:01;;;;;;;6.87;1.80;;;;;;;28.53;32.95;100090.75;4981453;28;20326;-64
2022/08/02 09:24:47;;;;;;;5.10;2.13;;;;;;;28.60;32.23;100086.63;4980568;28;20546;-65
2022/08/02 09:27:21;;;;;;;5.80;1.83;;;;;;;28.43;32.10;100086.06;4980593;28;20222;-64
2022/08/02 09:29:55;;;;;;;6.60;1.97;;;;;;;28.27;32.60;100092.59;4980273;28;20281;-63
2022/08/02 09:32:45;;;;;;;5.20;2.20;;;;;;;27.77;33.58;100090.25;4979257;28;20237;-64
2022/08/02 09:35:38;;;;;;;4.00;1.90;;;;;;;27.72;35.85;100086.66;4978581;28;20233;-62
2022/08/02 09:38:25;;;;;;;8.40;2.20;;;;;;;27.58;35.71;100087.16;4981296;28;20582;-63
2022/08/02 09:41:00;;;;;;;4.97;1.97;;;;;;;27.44;35.04;100088.72;4978494;28;20311;-64
2022/08/02 09:43:41;;;;;;;4.67;1.87;;;;;;;27.62;34.97;100092.09;4978015;28;20246;-64
2022/08/02 09:46:42;;;;;;;3.57;1.97;;;;;;;27.34;36.77;100091.38;4979384;28;20326;-63
2022/08/02 09:49:11;;;;;;;5.13;2.00;;;;;;;26.74;38.67;100085.22;4960357;28;20231;-63
2022/08/02 09:51:51;;;;;;;5.43;2.13;;;;;;;27.17;38.23;100094.28;4970909;28;20243;-64
2022/08/02 09:54:28;;;;;;;4.13;2.03;;;;;;;27.16;36.89;100087.16;4980266;28;20424;-63
2022/08/02 09:57:00;;;;;;;5.87;1.97;;;;;;;26.92;36.72;100092.16;4974887;28;20224;-64
2022/08/02 09:59:28;;;;;;;7.40;2.27;;;;;;;27.19;36.64;100094.81;4979998;28;22793;-63
2022/08/02 10:01:56;;;;;;;7.77;2.27;;;;;;;27.26;38.47;100091.91;4973746;28;20957;-64
2022/08/02 10:04:31;;;;;;;4.93;2.17;;;;;;;27.13;38.96;100095.88;4961474;28;20231;-64
2022/08/02 10:07:02;;;;;;;10.63;2.37;;;;;;;27.01;38.37;100097.97;4978170;28;20286;-63
2022/08/02 10:09:30;;;;;;;9.43;2.70;;;;;;;27.06;38.35;100087.09;4978182;28;20266;-65
2022/08/02 10:12:13;;;;;;;9.73;2.73;;;;;;;27.05;38.93;100080.00;4976144;28;20243;-63
2022/08/02 10:14:40;;;;;;;6.17;2.43;;;;;;;27.00;38.34;100090.88;4961657;28;20315;-64
2022/08/02 10:17:14;;;;;;;8.00;2.90;;;;;;;27.15;37.56;100083.59;4979575;28;20406;-64
2022/08/02 10:19:40;;;;;;;5.47;2.60;;;;;;;27.35;37.48;100077.47;4960157;28;20318;-65
2022/08/02 10:22:27;;;;;;;12.83;2.50;;;;;;;27.87;37.59;100083.19;4978227;28;20236;-66
2022/08/02 10:25:02;;;;;;;8.23;2.90;;;;;;;27.84;37.45;100086.44;4963611;28;20338;-64
2022/08/02 10:27:29;;;;;;;7.80;2.20;;;;;;;27.69;36.05;100089.91;4979902;28;20342;-65
2022/08/02 10:30:15;;;;;;;7.37;2.67;;;;;;;27.88;36.28;100091.13;4968492;28;20231;-65
2022/08/02 10:32:49;;;;;;;8.90;3.17;;;;;;;27.71;35.62;100085.84;4976282;28;20232;-64
2022/08/02 10:35:20;;;;;;;11.83;3.03;;;;;;;28.08;36.07;100089.56;4959760;28;20330;-63
2022/08/02 10:37:55;;;;;;;10.10;2.83;;;;;;;28.15;37.23;100092.84;4960496;28;20227;-65
2022/08/02 10:40:48;;;;;;;6.13;2.60;;;;;;;27.56;36.69;100088.50;4973710;28;20748;-64
2022/08/02 10:43:42;;;;;;;5.77;2.47;;;;;;;27.36;38.26;100090.03;4979511;28;20322;-64
2022/08/02 10:46:23;;;;;;;6.87;2.50;;;;;;;27.28;39.26;100084.25;4960835;28;20687;-63
2022/08/02 10:49:11;;;;;;;6.03;2.53;;;;;;;27.53;38.60;100086.28;4978326;28;20238;-64
2022/08/02 10:52:12;;;;;;;8.70;2.50;;;;;;;27.95;39.58;100086.22;4977385;28;20354;-64
2022/08/02 10:54:39;;;;;;;7.90;2.50;;;;;;;27.90;37.49;100083.47;4975811;28;20245;-63
2022/08/02 10:57:20;;;;;;;5.90;2.20;;;;;;;28.22;36.51;100079.72;4975535;28;20714;-63
2022/08/02 10:59:49;;;;;;;8.97;3.03;;;;;;;28.22;36.74;100073.44;4976405;28;20710;-64
2022/08/02 11:02:34;;;;;;;6.77;2.57;;;;;;;28.18;36.74;100079.44;4976663;28;20318;-65
2022/08/02 11:05:05;;;;;;;4.20;2.00;;;;;;;28.32;37.26;100081.66;4974199;28;20346;-64
2022/08/02 11:07:47;;;;;;;5.83;2.50;;;;;;;28.25;38.54;100084.66;4975063;28;20317;-66
2022/08/02 11:10:23;;;;;;;9.50;2.42;;;;;;;28.53;36.51;100080.59;4954691;28;20235;-64
2022/08/02 11:13:13;;;;;;;4.95;2.78;;;;;;;28.35;35.76;100078.38;4976534;28;20643;-64
2022/08/02 11:15:51;;;;;;;5.77;2.30;;;;;;;28.17;37.03;100075.06;4974725;28;20496;-65
2022/08/02 11:18:19;;;;;;;3.63;2.10;;;;;;;28.13;36.25;100076.69;4980145;28;20585;-64
2022/08/02 11:20:45;;;;;;;6.73;2.30;;;;;;;27.83;36.49;100071.13;4978340;28;20234;-64
2022/08/02 11:23:41;;;;;;;6.67;2.30;;;;;;;27.71;37.36;100074.91;4979659;28;20342;-64
2022/08/02 11:26:29;;;;;;;7.77;2.10;;;;;;;27.69;37.99;100070.78;4944693;28;20230;-63
2022/08/02 11:29:04;;;;;;;7.30;2.23;;;;;;;27.70;38.78;100062.31;5008366;23;20387;-74
2022/08/02 11:31:38;;;;;;;7.37;2.53;;;;;;;27.86;38.51;100067.88;4994109;28;20318;-73
2022/08/02 11:34:05;;;;;;;7.30;2.17;;;;;;;27.73;38.28;100080.09;4992222;28;20240;-72
2022/08/02 11:36:50;;;;;;;8.60;2.07;;;;;;;27.60;38.44;100080.59;4993572;28;20722;-74
2022/08/02 11:39:19;;;;;;;8.43;2.17;;;;;;;27.60;38.37;100081.41;4995191;28;20309;-72
2022/08/02 11:41:53;;;;;;;5.40;2.50;;;;;;;27.16;37.88;100085.25;4996072;28;20226;-73
2022/08/02 11:44:24;;;;;;;4.60;2.07;;;;;;;27.17;38.36;100080.59;4995984;28;20332;-81
2022/08/02 11:47:01;;;;;;;6.83;2.53;;;;;;;27.34;38.11;100086.75;4992490;28;20605;-75
2022/08/02 11:49:28;;;;;;;5.83;2.70;;;;;;;27.32;39.64;100085.34;4996229;28;20743;-76
2022/08/02 11:52:03;;;;;;;7.73;2.67;;;;;;;27.14;40.11;100084.69;4995642;28;20296;-54
2022/08/02 11:54:32;;;;;;;8.17;3.10;;;;;;;27.18;40.91;100082.25;4990056;28;20234;-46
2022/08/02 11:57:18;;;;;;;8.37;2.60;;;;;;;27.14;42.22;100081.16;4996364;28;20336;-48
2022/08/02 11:59:48;;;;;;;4.17;2.30;;;;;;;27.12;41.89;100086.03;4995390;28;20526;-46
2022/08/02 12:05:03;;;;;;;9.60;2.13;;;;;;;27.18;42.43;100079.50;4939187;28;20232;-62
2022/08/02 12:07:38;;;;;;;6.60;2.30;;;;;;;27.20;42.47;100085.56;4947134;28;20308;-63
2022/08/02 12:10:14;;;;;;;5.73;2.40;;;;;;;27.25;40.31;100084.78;4940814;28;20241;-64